NWS Home NWS Lubbock West Texas Mesonet                      Daily Summary For 04/16/2021

Latest   N   C   S   Daily Sum   3hrΔ   24hrΔ   Soil Data 
Site Map   24hr Precip   72hr Precip   Google Plot


Station Time of Last Max Temp Min Temp Max/Min Dew Pt. Max/Min RH 10m Avg Wind 2m Avg Wind Peak Gust @ 33ft (mph) Potential Evapotranspiration
mm/day or in/day
Rain Sum Solar Rad
MJ/m^2
% Clear Day Red Flag
Abernathy 5ENE 11:59 PM 79 36 57 /28 68 / 47 14.8  (E) 12 34 mph 19° @ 0556 PM 1.8 or 0.07 0.03 16 117.9 0
Adrian 6WSW 11:59 PM 79 36 57 /28 68 / 47 16.3  (SE) 13.4 40 mph 18° @ 0325 PM 1.5 or 0.06 0.02 23.8 182.9 0
Aiken 3WSW 11:59 PM 79 36 57 /28 68 / 47 15.7  (E) 11.4 33.3 mph 1° @ 0403 PM 1.5 or 0.06 0.04 17 126.1 0
Amarillo 15NNW 11:59 PM 79 36 57 /28 68 / 47 12.6  (E) 9.6 35.4 mph 339° @ 0357 PM 1 or 0.04 0.04 10.2 79.8 0
Amarillo 7SSE 11:59 PM 79 36 57 /28 68 / 47 13.7  (SE) 10.3 38.1 mph 1° @ 0417 PM 1.3 or 0.05 0.05 13.3 102 0
Amarillo 9NNE 11:59 PM 79 36 57 /28 68 / 47 12.4  (SE) 9.9 33.9 mph 346° @ 0105 PM 1 or 0.04 0.05 9.8 76 0
Amherst 1NE 11:59 PM 79 36 57 /28 68 / 47 9.8  (SE) 7.2 31.8 mph 3° @ 0235 PM 1.8 or 0.07 0.03 45.7 337.4 0
Andrews 2E 11:59 PM 79 36 57 /28 68 / 47 11  (E) 6.6 31.8 mph 38° @ 1033 PM 1.8 or 0.07 0.02 10.7 74.7 0
Anton 6SSW 11:55 PM 79 36 57 /28 68 / 47 14.6  (SE) 11.8 31.9 mph 4° @ 0445 PM 2 or 0.08 0.02 16.7 122.2 0
Aspermont 3NE 11:59 PM 79 36 57 /28 68 / 47 12.6  (E) 9.4 31.8 mph 2° @ 1019 PM 1.3 or 0.05 0.07 7.1 52 0
Big Bend NP - Castolon 11:59 PM 79 36 57 /28 68 / 47 8  (NW) 6.3 33.8 mph 32° @ 0830 PM 4.3 or 0.17 0.00 18.9 120.8 0
Big Bend NP - Persimmon Gap 11:59 PM 79 36 57 /28 68 / 47 10.5  (N) 8.5 40.3 mph 34° @ 1150 PM 4.6 or 0.18 0.00 17 110 0
Big Lake 1WNW 11:59 PM 79 36 57 /28 68 / 47 11.9  (E) 9.4 27.1 mph 30° @ 0745 PM 1.8 or 0.07 0.03 15.9 108 0
Bootleg 11WNW 11:59 PM 79 36 57 /28 68 / 47 15.9  (SE) 12.2 36.8 mph 346° @ 0151 PM 1.8 or 0.07 0.01 22.3 168.9 0
Borger 7E 11:59 PM 79 36 57 /28 68 / 47 13.1  (SE) 10.2 34 mph 3° @ 0541 PM 1 or 0.04 0.05 8.3 65.1 0
Boys Ranch 1WSW 11:59 PM 79 36 57 /28 68 / 47 11.2  (E) 9.1 34.9 mph 357° @ 1057 AM 1.3 or 0.05 0.03 18.3 143.3 0
Brownfield 2S 11:59 PM 79 36 57 /28 68 / 47 13.5  (SE) 11 32.9 mph 27° @ 1027 PM 2 or 0.08 0.02 17.9 129 0
Canadian 6E 11:59 PM 79 36 57 /28 68 / 47 11.6  (E) 8.3 30.9 mph 345° @ 0651 PM 0.5 or 0.02 0.09 4.9 38.9 0
Caprock Canyons State Park 11:59 PM 79 36 57 /28 68 / 47 9.1  (SE) 5.8 31 mph 28° @ 0603 PM 1.3 or 0.05 0.05 10 75.7 0
Childress 2NNE 11:55 PM 79 36 57 /28 68 / 47 14.3  (E) 10.3 33.1 mph 350° @ 0620 PM 1.3 or 0.05 0.07 9.1 69.5 0
Clarendon 2WSW 11:55 PM 79 36 57 /28 68 / 47 15.3  (E) 11.8 35.7 mph 352° @ 0425 PM 1.3 or 0.05 0.05 9.9 75.9 0
Claude 12SW 11:59 PM 79 36 57 /28 68 / 47 13.6  (SE) 9.7 37.8 mph 348° @ 0611 PM 1 or 0.04 0.05 13.9 106.6 0
Clyde 2WNW 11:59 PM 79 36 57 /28 68 / 47 11  (E) 8.2 30 mph 13° @ 1126 PM 0.8 or 0.03 0.05 5 35.4 0
Colorado City 5NW 11:59 PM 79 36 57 /28 68 / 47 11.4  (SE) 7.8 30.6 mph 30° @ 1110 PM 0.8 or 0.03 0.07 6.6 46.4 0
Comanche Springs 11:59 PM 79 36 57 /28 68 / 47 11.3  (NE) 8.7 31.8 mph 346° @ 0808 PM 1.3 or 0.05 0.09 8.3 62.3 0
Coyanosa 2N 11:59 PM 79 36 57 /28 68 / 47 9  (NE) 6.4 24 mph 71° @ 1049 PM 1.8 or 0.07 0.00 10.9 74 0
Crane 1NNW 11:59 PM 79 36 57 /28 68 / 47 11.2  (E) 9.5 30 mph 68° @ 0815 PM 1.8 or 0.07 0.00 12.8 87.5 0
Crowell 1E 11:59 PM 79 36 57 /28 68 / 47 14.3  (E) 11.4 31.8 mph 1° @ 0704 PM 1.5 or 0.06 0.08 10.6 79.3 0
Dell City 11:59 PM 79 36 57 /28 68 / 47 7  (W) 4.4 31.2 mph 47° @ 1155 PM 2.8 or 0.11 0.00 12.8 87.9 1
Denver City 7WNW 11:55 PM 79 36 57 /28 68 / 47 11.5  (SE) 8.7 31.3 mph 45° @ 0900 PM 2 or 0.08 0.02 19.7 140.7 0
Dimmitt 2NE 11:55 PM 79 36 57 /28 68 / 47 16  (SE) 12.5 37.9 mph 11° @ 0640 PM 1.8 or 0.07 0.04 21 158.2 0
Doole 3WNW 11:59 PM 79 36 57 /28 68 / 47 9.8  (E) 8.1 25.9 mph 10° @ 1133 PM 1.3 or 0.05 0.01 5.2 35.5 0
Dora NM 2SW 11:55 PM 79 36 57 /28 68 / 47 12.8  (SE) 9.6 32.1 mph 48° @ 0710 PM 2 or 0.08 0.01 21.3 156.2 0
Dozier 3W 11:59 PM 79 36 57 /28 68 / 47 12.4  (E) 8.4 31 mph 338° @ 0253 PM 1.3 or 0.05 0.06 10.6 82.2 0
Earth 9WSW 11:59 PM 79 36 57 /28 68 / 47 13.4  (SE) 10.8 35.2 mph 23° @ 0600 PM 2 or 0.08 0.03 20.6 152.7 0
Endee NM 2SW 11:59 PM 79 36 57 /28 68 / 47 15.4  (SE) 11.6 35.7 mph 27° @ 0103 PM 2 or 0.08 0.00 21.9 168.2 0
Estelline 3SSE 11:59 PM 79 36 57 /28 68 / 47 12.5  (E) 10 31.2 mph 352° @ 0551 PM 1.3 or 0.05 0.06 9.7 73.7 0
Floydada 2NNE 11:55 PM 79 36 57 /28 68 / 47 14.4  (E) 10.8 31.7 mph 12° @ 0440 PM 1.5 or 0.06 0.03 13.5 99.9 0
Fluvanna 3WNW 11:55 PM 79 36 57 /28 68 / 47 13.4  (E) 10.8 38.1 mph 16° @ 1050 PM 1 or 0.04 0.02 7.9 56.3 0
Fort Chadbourne 11:59 PM 79 36 57 /28 68 / 47 8.7  (SE) 5.1 25 mph 13° @ 0612 PM 1 or 0.04 0.06 6.4 44.7 0
Fort Lancaster 11:59 PM 79 36 57 /28 68 / 47 8.4  (E) 5.5 26.7 mph 7° @ 0926 PM 2.8 or 0.11 0.07 19.7 131.9 0
Fort Lewis CO 11:59 PM 79 36 57 /28 68 / 47 8  (NW) 5.6 26.3 mph 300° @ 0643 PM 1.5 or 0.06 0.00 24.1 194.7 0
Fort McKavett 11:59 PM 79 36 57 /28 68 / 47 9.1  (SE) 6.3 24.8 mph 14° @ 0917 PM 2 or 0.08 0.05 13.3 89.2 0
Friona 2NE 11:55 PM 79 36 57 /28 68 / 47 14.3  (SE) 10.9 35.9 mph 18° @ 0605 PM 1.8 or 0.07 0.03 22.2 167.2 0
Fritch 1WNW 11:59 PM 79 36 57 /28 68 / 47 11.9  (E) 8.8 33.9 mph 12° @ 0446 PM 1 or 0.04 0.04 8.2 64.3 0
Gail 2ESE 11:59 PM 79 36 57 /28 68 / 47 11.8  (E) 8.4 39.5 mph 22° @ 1044 PM 1.3 or 0.05 0.05 9.8 69.9 0
Goodlett 3W 11:55 PM 79 36 57 /28 68 / 47 14.3  (E) 11.1 35.9 mph 345° @ 0640 PM 1.3 or 0.05 0.08 8.8 66.6 0
Goodnight 11:59 PM 79 36 57 /28 68 / 47 14.3  (SE) 10.9 39.6 mph 350° @ 0627 PM 1.3 or 0.05 0.06 10.2 78.8 0
Graham 5SSW 11:59 PM 79 36 57 /28 68 / 47 14.5  (E) 11.2 35.1 mph 22° @ 0914 PM 1.8 or 0.07 0.03 13.7 98.6 0
Guadalupe Mtns Natl Park 11:59 PM 79 36 57 /28 68 / 47 10  (W) 7.2 36.2 mph 292° @ 1212 AM 3 or 0.12 0.00 12.4 83.7 8
Guthrie 10WSW 11:59 PM 79 36 57 /28 68 / 47 13.6  (NE) 10 34 mph 353° @ 0702 PM 1.3 or 0.05 0.03 7 51.4 0
Hackberry 2SSE 11:59 PM 79 36 57 /28 68 / 47 14.2  (E) 10.8 31.4 mph 355° @ 0806 PM 1.5 or 0.06 0.06 8.7 65 0
Happy 1E 11:59 PM 79 36 57 /28 68 / 47 15  (SE) 12.1 40 mph 8° @ 0356 PM 1.5 or 0.06 0.04 19.8 150 0
Hart 3N 11:55 PM 79 36 57 /28 68 / 47 15.4  (SE) 11.8 36.2 mph 13° @ 0500 PM 1.5 or 0.06 0.03 20.1 150.5 0
Haskell 1NW 11:55 PM 79 36 57 /28 68 / 47 13.6  (E) 10.7 32.5 mph 6° @ 1100 PM 1 or 0.04 0.06 7.2 52.6 0
Hefner 1SW 11:59 PM 79 36 57 /28 68 / 47 13.6  (E) 9.4 33.4 mph 344° @ 0916 PM 1.3 or 0.05 0.08 8.8 64.7 0
Hereford 2NW 11:55 PM 79 36 57 /28 68 / 47 14.1  (SE) 11.3 35.1 mph 17° @ 0700 PM 1.5 or 0.06 0.03 22.3 169.6 0
Hobbs NM 5NW 11:59 PM 79 36 57 /28 68 / 47 9.3  (SE) 6.4 32.1 mph 46° @ 0939 PM 2 or 0.08 0.02 18.1 127.8 0
Jayton 1SSE 11:55 PM 79 36 57 /28 68 / 47 12.9  (E) 9.7 29.3 mph 8° @ 1015 PM 1.3 or 0.05 0.07 7.1 51.5 0
Junction 1SSW 11:59 PM 79 36 57 /28 68 / 47 6.9  (S) 5.4 25.7 mph 13° @ 0934 PM 2 or 0.08 0.03 9.6 64.3 0
Kent 9E 11:59 PM 79 36 57 /28 68 / 47 10.1  (SE) 7.2 26.8 mph 82° @ 1013 PM 3.3 or 0.13 0.00 18 120.5 0
Knox City 3NW 11:59 PM 79 36 57 /28 68 / 47 11.9  (NE) 8.9 32.9 mph 5° @ 1023 PM 1.3 or 0.05 0.08 8.7 64.3 0
Lake Alan Henry 1NW 11:59 PM 79 36 57 /28 68 / 47 11  (E) 7.4 29.1 mph 28° @ 0901 PM 1.3 or 0.05 0.04 9.3 67 0
Lake McClellan 2NW 11:59 PM 79 36 57 /28 68 / 47 16.4  (E) 12.7 37.6 mph 348° @ 0633 PM 1.3 or 0.05 0.05 8.7 67.2 0
Lamesa 2SE 11:55 PM 79 36 57 /28 68 / 47 11  (E) 6.6 30.2 mph 30° @ 1150 PM 1.8 or 0.07 0.03 14.1 100.3 0
Lesley 2S 11:59 PM 79 36 57 /28 68 / 47 13.5  (E) 9.5 34 mph 353° @ 0533 PM 1.5 or 0.06 0.05 9.6 73.6 0
Levelland 4S 11:59 PM 79 36 57 /28 68 / 47 14.4  (SE) 11.9 34 mph 38° @ 0837 PM 2 or 0.08 0.01 17.9 130 0
Lomax 1SSE 11:59 PM 79 36 57 /28 68 / 47 10.8  (NE) 8.5 28.9 mph 30° @ 1146 PM 1 or 0.04 0.05 7.7 53.8 0
Lubbock 3WNW TTU 11:55 PM 79 36 57 /28 68 / 47 11.8  (SE) 9 30 mph 347° @ 0110 PM 1.8 or 0.07 0.03 14.5 105.6 0
McAdoo 3NNW 11:59 PM 79 36 57 /28 68 / 47 15.1  (E) 11 34 mph 15° @ 1020 PM 1.3 or 0.05 0.03 10.1 74.4 0
McCamey 1SSW 11:59 PM 79 36 57 /28 68 / 47 9.2  (E) 7.6 27 mph 50° @ 0834 PM 1.8 or 0.07 0.01 15.4 104.5 0
McLean 1E 11:55 PM 79 36 57 /28 68 / 47 15  (E) 12.4 37 mph 343° @ 0420 PM 1 or 0.04 0.05 9.3 71.9 0
Memphis 1NE 11:59 PM 79 36 57 /28 68 / 47 12.9  (E) 9.4 34 mph 348° @ 0530 PM 1.3 or 0.05 0.04 11.7 89.7 0
Menard 2NW 11:59 PM 79 36 57 /28 68 / 47 9  (SE) 7.2 30.5 mph 19° @ 1128 PM 1.5 or 0.06 0.05 8.3 55.8 0
Mertzon 3NNE 11:59 PM 79 36 57 /28 68 / 47 8.5  (SE) 6.3 27.2 mph 358° @ 0905 AM 1.3 or 0.05 0.02 8.6 58.5 0
Morton 1ENE 11:55 PM 79 36 57 /28 68 / 47 12.7  (SE) 9.1 31.3 mph 41° @ 0730 PM 1.8 or 0.07 0.02 16.9 123.7 0
Muleshoe 2SSW 11:55 PM 79 36 57 /28 68 / 47 11.8  (SE) 8.9 32.2 mph 15° @ 0315 PM 1.8 or 0.07 0.02 22.8 169.4 0
New Home 11:59 PM 79 36 57 /28 68 / 47 11.4  (E) 8.8 30 mph 28° @ 0750 PM 1.8 or 0.07 0.04 15.6 112.9 0
Northfield 1S 11:55 PM 79 36 57 /28 68 / 47 12.2  (E) 8.8 32 mph 6° @ 0430 PM 1.5 or 0.06 0.06 8.4 63.3 0
O'Donnell 1N 11:55 PM 79 36 57 /28 68 / 47 13.9  (E) 10.7 34 mph 21° @ 0730 PM 1.8 or 0.07 0.07 2.7 96.6 0
Odell 4ENE 11:59 PM 79 36 57 /28 68 / 47 13.1  (NE) 9.7 30.5 mph 350° @ 0804 PM 1 or 0.04 0.10 8 61.3 0
Olton 6S 11:55 PM 79 36 57 /28 68 / 47 14.6  (SE) 12 34.6 mph 7° @ 0315 PM 1.8 or 0.07 0.03 19.2 142 0
Paducah 10SW 11:59 PM 79 36 57 /28 68 / 47 15.1  (E) 9 34 mph 352° @ 0805 PM 1.5 or 0.06 0.06 8.5 63.4 0
Palo Duro 4E (JA Ranch) 11:59 PM 79 36 57 /28 68 / 47 12.9  (SE) 9.1 34.3 mph 356° @ 0647 PM 1.3 or 0.05 0.05 12.1 92.7 0
Palo Duro Canyon SP Floor 11:59 PM 79 36 57 /28 68 / 47 7.9  (SE) 3.5 32.4 mph 333° @ 0320 PM 1.3 or 0.05 0.05 11.6 89.3 0
Palo Duro Canyon State Park Rim 11:59 PM 79 36 57 /28 68 / 47 10.6  (SE) 5.6 35.4 mph 1° @ 0335 PM 1.3 or 0.05 0.06 13.9 106.8 0
Palo Duro Reservoir 1NW 11:59 PM 79 36 57 /28 68 / 47 13.7  (SE) 10.2 32.7 mph 4° @ 0445 PM 0.8 or 0.03 0.07 7.3 58.8 0
Pampa 2E 11:55 PM 79 36 57 /28 68 / 47 13.7  (SE) 11.1 34.2 mph 328° @ 0200 PM 0.8 or 0.03 0.05 6.5 51 0
Panhandle 1SSW 11:59 PM 79 36 57 /28 68 / 47 13.1  (SE) 10.8 35.9 mph 338° @ 0310 PM 1 or 0.04 0.06 9.1 70.5 0
Plains 3N 11:55 PM 79 36 57 /28 68 / 47 11.5  (SE) 9.5 30.2 mph 44° @ 0835 PM 2 or 0.08 0.01 20 143.5 0
Plainview 1S 11:59 PM 79 36 57 /28 68 / 47 12.8  (SE) 9.9 36.2 mph 355° @ 0243 PM 1.8 or 0.07 0.03 19.2 143 0
Post 1NE 11:59 PM 79 36 57 /28 68 / 47 12.1  (E) 8.1 31.8 mph 19° @ 1126 PM 1.5 or 0.06 0.04 12.3 89.3 0
Ralls 1SE 11:59 PM 79 36 57 /28 68 / 47 14.4  (E) 11.5 32.9 mph 18° @ 0718 PM 1.5 or 0.06 0.02 13.5 99 0
Reese Center 11:59 PM 79 36 57 /28 68 / 47 14.9  (SE) 9.5 36.2 mph 32° @ 0703 PM 2 or 0.08 0.02 16.6 121.1 0
Roaring Springs 3N 11:59 PM 79 36 57 /28 68 / 47 13.8  (E) 9.9 34 mph 2° @ 0648 PM 1.3 or 0.05 0.04 8.1 60.3 0
Romero 11SSW 11:59 PM 79 36 57 /28 68 / 47 18  (E) 14.3 41.6 mph 12° @ 1154 AM 1.8 or 0.07 0.02 23.2 180.8 0
Rotan 5W 11:59 PM 79 36 57 /28 68 / 47 13.6  (NE) 11 35 mph 5° @ 1007 PM 1 or 0.04 0.07 7.2 52 0
San Angelo 7NW 11:55 PM 79 36 57 /28 68 / 47 8.2  (E) 5.8 23.5 mph 30° @ 1140 PM 1.3 or 0.05 0.05 7.1 49.1 0
Seagraves 1SW 11:59 PM 79 36 57 /28 68 / 47 10.4  (SE) 7.8 31.8 mph 29° @ 1100 PM 2 or 0.08 0.03 18.2 129.9 0
Segovia 7SSW 11:59 PM 79 36 57 /28 68 / 47 10.3  (SE) 8 28.4 mph 12° @ 1021 PM 2 or 0.08 0.03 11.1 73.4 0
Seminole 2NNE 11:55 PM 79 36 57 /28 68 / 47 12.7  (SE) 9.6 32.1 mph 35° @ 0905 PM 1.8 or 0.07 0.05 14.8 104.7 0
Seymour 3NW 11:55 PM 79 36 57 /28 68 / 47 11.7  (NE) 8.9 30.6 mph 337° @ 0855 PM 1.3 or 0.05 0.10 7.1 52.7 0
Sierra Blanca 1SSE 11:59 PM 79 36 57 /28 68 / 47 9.5  (W) 7 28.9 mph 230° @ 1058 PM 3.6 or 0.14 0.00 13 86.8 0
Silverton 7ESE 11:55 PM 79 36 57 /28 68 / 47 15  (E) 11.5 33.5 mph 1° @ 0515 PM 1.3 or 0.05 0.04 11 82.9 0
Slaton 2NE 11:59 PM 79 36 57 /28 68 / 47 12.9  (E) 10.2 34 mph 358° @ 0707 PM 1.8 or 0.07 0.03 16.4 119.2 0
Smyer 11:59 PM 79 36 57 /28 68 / 47 13.7  (SE) 11.2 33.5 mph 358° @ 0104 PM 2 or 0.08 0.02 16.8 122.3 0
Snyder 3E 11:55 PM 79 36 57 /28 68 / 47 13.5  (E) 6.1 36.3 mph 13° @ 1140 PM 0.8 or 0.03 0.08 6.6 47.2 0
Snyder 3SSW 11:59 PM 79 36 57 /28 68 / 47 12.2  (E) 8.5 35.6 mph 21° @ 1024 PM 0.8 or 0.03 0.07 7.1 50.3 0
South Plains 3ENE 11:59 PM 79 36 57 /28 68 / 47 13.1  (E) 10.1 32.6 mph 354° @ 0440 PM 1.3 or 0.05 0.04 11.3 84.7 0
Spur 1W 11:55 PM 79 36 57 /28 68 / 47 12.1  (E) 10.4 30.5 mph 21° @ 0825 PM 1.3 or 0.05 0.02 8.9 65.3 0
St. Lawrence 5SW 11:59 PM 79 36 57 /28 68 / 47 11.9  (E) 9.2 31.8 mph 26° @ 0417 PM 0.8 or 0.03 0.02 7.5 51.6 0
Stamford 5ESE 11:59 PM 79 36 57 /28 68 / 47 13.4  (NE) 10 33.2 mph 9° @ 1029 PM 1 or 0.04 0.06 5.9 42.5 0
Sterling City 4WSW 11:59 PM 79 36 57 /28 68 / 47 9.2  (E) 6.9 24.6 mph 9° @ 0358 PM 0.8 or 0.03 0.02 5.2 36.1 0
Stinnett 1NNW 11:59 PM 79 36 57 /28 68 / 47 14.5  (E) 11.1 36.7 mph 3° @ 0428 PM 0.8 or 0.03 0.04 9.4 74.2 0
Stratford 4WNW 11:59 PM 79 36 57 /28 68 / 47 15.9  (SE) 11.7 34.4 mph 360° @ 0434 PM 1.3 or 0.05 0.01 10.2 81.9 0
Sundown 8WSW 11:55 PM 79 36 57 /28 68 / 47 12.5  (SE) 8.8 32.1 mph 39° @ 0805 PM 2 or 0.08 0.02 16 115.6 0
Sweetwater 11SW 11:59 PM 79 36 57 /28 68 / 47 13.1  (SE) 9.2 31 mph 17° @ 1051 PM 0.8 or 0.03 0.03 5.6 39.1 0
Tahoka 3NNE 11:59 PM 79 36 57 /28 68 / 47 13.7  (E) 10.1 33.4 mph 19° @ 1009 PM 2 or 0.08 0.03 17.2 124.2 0
Tarzan 2WNW 11:59 PM 79 36 57 /28 68 / 47 12.4  (NE) 9.1 29.5 mph 40° @ 0934 PM 1.3 or 0.05 0.04 9.3 65 0
Tatum NM 2SW 11:55 PM 79 36 57 /28 68 / 47 12.4  (SE) 8.6 30.8 mph 48° @ 0910 PM 2.3 or 0.09 0.01 18.4 132.3 0
Throckmorton 1SW 11:59 PM 79 36 57 /28 68 / 47 9.1  (E) 5.2 27.6 mph 347° @ 0957 PM 0.8 or 0.03 0.11 6 43.6 0
Truscott 2SE 11:59 PM 79 36 57 /28 68 / 47 12.3  (NE) 9.6 31 mph 348° @ 0832 PM 1.3 or 0.05 0.10 8.8 65.4 0
Tulia 2ENE 11:55 PM 79 36 57 /28 68 / 47 14.1  (SE) 11.1 33.5 mph 7° @ 0715 PM 1.5 or 0.06 0.04 16.1 121 0
Turkey 2WSW 11:55 PM 79 36 57 /28 68 / 47 14.7  (E) 11.5 33.8 mph 349° @ 0820 PM 1.3 or 0.05 0.03 8.3 62.7 0
Umbarger 3NNE 11:59 PM 79 36 57 /28 68 / 47 15.2  (SE) 12.1 38.8 mph 4° @ 0453 PM 1.5 or 0.06 0.04 20.2 154.6 0
Van Horn 3ENE 11:59 PM 79 36 57 /28 68 / 47 9.2  (NW) 6.6 28.8 mph 301° @ 1201 AM 3.6 or 0.14 0.00 11.5 76.8 0
Vega 4E 11:59 PM 79 36 57 /28 68 / 47 15.6  (E) 12.4 39.5 mph 342° @ 1247 PM 1.5 or 0.06 0.03 20.6 158.9 0
Vigo Park 11:59 PM 79 36 57 /28 68 / 47 12.7  (E) 9.1 33.4 mph 16° @ 0739 PM M or M 0.06 12.3 92.7 0
Wall 2E 11:59 PM 79 36 57 /28 68 / 47 11.1  (E) 9 26.8 mph 13° @ 0523 PM 1 or 0.04 0.03 7.3 50 0
Weinert 2NNE 11:59 PM 79 36 57 /28 68 / 47 13  (E) 10 32.1 mph 7° @ 1038 PM 1.3 or 0.05 0.10 7.7 56.3 0
Welch 11:59 PM 79 36 57 /28 68 / 47 12.2  (SE) 9.2 29 mph 29° @ 0921 PM 1.8 or 0.07 0.03 17 121.5 0
Wellington 6SE 11:59 PM 79 36 57 /28 68 / 47 15.7  (E) 12.3 37.3 mph 340° @ 0511 PM 1.5 or 0.06 0.04 12.7 98 0
White River Lake 6NW 11:59 PM 79 36 57 /28 68 / 47 14.8  (E) 10.8 35.1 mph 4° @ 0816 PM 1.5 or 0.06 0.04 14.7 107.4 0
Wolfforth 6SSW 11:59 PM 79 36 57 /28 68 / 47 14.3  (SE) 11.1 34 mph 29° @ 1046 PM 2 or 0.08 0.03 16.1 116.5 0

WestTexas Mesonet Home    Site Map/Menu  National Weather Service Lubbock   Soil Data   Latest Observation Page   Previous  Date   Next Last